createdAt,value
2022-07-29T00:00:29.090Z,1.20
2022-07-29T00:01:30.687Z,1.00
2022-07-29T00:02:33.427Z,1.10
2022-07-29T00:03:35.164Z,1.10
2022-07-29T00:04:38.558Z,1.40
2022-07-29T00:05:41.164Z,1.50
2022-07-29T00:06:43.805Z,1.17
2022-07-29T00:07:45.456Z,1.08
2022-07-29T00:08:48.025Z,0.90
2022-07-29T00:09:51.922Z,1.17
2022-07-29T00:10:55.145Z,1.30
2022-07-29T00:12:00.629Z,1.00
2022-07-29T00:13:03.466Z,1.00
2022-07-29T00:14:05.250Z,1.20
2022-07-29T00:15:08.757Z,1.20
2022-07-29T00:16:11.123Z,1.13
2022-07-29T00:17:13.975Z,1.23
2022-07-29T00:18:20.694Z,1.05
2022-07-29T00:19:23.231Z,1.25
2022-07-29T00:20:24.906Z,1.25
2022-07-29T00:21:27.493Z,1.35
2022-07-29T00:22:29.094Z,1.35
2022-07-29T00:23:33.787Z,1.23
2022-07-29T00:24:38.229Z,1.15
2022-07-29T00:25:40.826Z,1.20
2022-07-29T00:26:42.398Z,1.00
2022-07-29T00:27:47.014Z,1.30
2022-07-29T00:28:48.604Z,1.70
2022-07-29T00:29:51.255Z,1.25
2022-07-29T00:30:52.828Z,1.50
2022-07-29T00:31:55.713Z,1.30
2022-07-29T00:32:57.340Z,1.20
2022-07-29T00:33:59.893Z,1.20
2022-07-29T00:35:20.623Z,1.13
2022-07-29T00:36:22.510Z,1.40
2022-07-29T00:37:24.337Z,1.27
2022-07-29T00:38:26.871Z,1.40
2022-07-29T00:39:28.463Z,1.30
2022-07-29T00:40:31.574Z,1.23
2022-07-29T00:41:33.138Z,1.10
2022-07-29T00:42:43.975Z,1.50
2022-07-29T00:43:47.912Z,1.20
2022-07-29T00:44:49.567Z,1.20
2022-07-29T00:45:52.175Z,1.30
2022-07-29T00:46:53.928Z,1.23
2022-07-29T00:47:56.549Z,1.20
2022-07-29T00:48:58.494Z,1.27
2022-07-29T00:50:01.094Z,1.77
2022-07-29T00:51:04.497Z,1.40
2022-07-29T00:52:09.425Z,1.50
2022-07-29T00:53:13.943Z,1.40
2022-07-29T00:54:15.966Z,1.45
2022-07-29T00:55:18.842Z,1.40
2022-07-29T00:56:20.503Z,1.15
2022-07-29T00:57:23.079Z,1.10
2022-07-29T00:58:25.787Z,1.05
2022-07-29T00:59:34.889Z,1.45
2022-07-29T01:00:38.157Z,1.08
2022-07-29T01:01:39.899Z,1.38
2022-07-29T01:02:42.496Z,1.20
2022-07-29T01:03:44.658Z,1.67
2022-07-29T01:04:47.243Z,1.40
2022-07-29T01:05:50.260Z,1.00
2022-07-29T01:06:56.330Z,1.20
2022-07-29T01:07:58.457Z,2.22
2022-07-29T01:09:01.335Z,1.40
2022-07-29T01:10:03.920Z,1.30
2022-07-29T01:11:06.593Z,1.30
2022-07-29T01:12:08.622Z,1.60
2022-07-29T01:13:11.871Z,1.30
2022-07-29T01:14:13.864Z,1.30
2022-07-29T01:15:18.138Z,1.90
2022-07-29T01:16:26.993Z,1.00
2022-07-29T01:17:34.651Z,1.33
2022-07-29T01:18:40.589Z,1.50
2022-07-29T01:19:55.513Z,1.35
2022-07-29T01:21:12.977Z,1.80
2022-07-29T01:22:26.591Z,1.17
2022-07-29T01:24:01.595Z,1.27
2022-07-29T01:25:34.779Z,1.08
2022-07-29T01:26:43.311Z,1.10
2022-07-29T01:27:54.051Z,1.30
2022-07-29T01:29:06.070Z,1.33
2022-07-29T01:30:11.043Z,1.73
2022-07-29T01:31:25.198Z,1.20
2022-07-29T01:32:31.295Z,1.20
2022-07-29T01:33:51.415Z,1.33
2022-07-29T01:34:57.713Z,1.48
2022-07-29T01:36:00.215Z,1.70
2022-07-29T01:37:08.749Z,1.50
2022-07-29T01:38:13.834Z,1.05
2022-07-29T01:39:20.829Z,1.50
2022-07-29T01:40:25.513Z,1.20
2022-07-29T01:41:28.839Z,1.20
2022-07-29T01:42:35.387Z,1.30
2022-07-29T01:43:44.234Z,2.15
2022-07-29T01:44:54.404Z,1.45
2022-07-29T01:45:58.781Z,1.20
2022-07-29T01:47:04.562Z,1.30
2022-07-29T01:48:12.044Z,1.90
2022-07-29T01:49:18.834Z,1.38
2022-07-29T01:50:22.456Z,1.25
2022-07-29T01:51:30.199Z,1.40
2022-07-29T01:52:35.942Z,1.25
2022-07-29T01:53:48.632Z,1.20
2022-07-29T01:54:54.069Z,1.20
2022-07-29T01:55:57.727Z,1.30
2022-07-29T01:57:01.961Z,1.13
2022-07-29T01:58:07.182Z,1.50
2022-07-29T01:59:09.636Z,1.40
2022-07-29T02:00:16.583Z,2.08
2022-07-29T02:01:19.125Z,1.50
2022-07-29T02:02:22.951Z,1.65
2022-07-29T02:03:25.836Z,1.10
2022-07-29T02:04:30.203Z,1.23
2022-07-29T02:05:33.628Z,1.73
2022-07-29T02:06:36.121Z,1.20
2022-07-29T02:07:38.976Z,1.45
2022-07-29T02:08:41.720Z,1.35
2022-07-29T02:09:45.441Z,1.25
2022-07-29T02:10:48.413Z,1.30
2022-07-29T02:11:54.503Z,1.30
2022-07-29T02:12:57.276Z,1.38
2022-07-29T02:14:00.865Z,1.50
2022-07-29T02:15:04.810Z,1.30
2022-07-29T02:16:11.186Z,1.40
2022-07-29T02:17:13.583Z,1.77
2022-07-29T02:18:18.728Z,1.30
2022-07-29T02:19:23.216Z,1.48
2022-07-29T02:20:27.479Z,1.40
2022-07-29T02:21:30.745Z,1.25
2022-07-29T02:22:35.877Z,1.63
2022-07-29T02:23:45.040Z,1.55
2022-07-29T02:24:53.576Z,1.30
2022-07-29T02:25:56.552Z,1.73
2022-07-29T02:27:00.134Z,1.55
2022-07-29T02:28:01.829Z,1.50
2022-07-29T02:29:04.818Z,1.38
2022-07-29T02:30:07.527Z,1.48
2022-07-29T02:31:11.914Z,1.30
2022-07-29T02:32:15.038Z,1.60
2022-07-29T02:33:18.198Z,1.65
2022-07-29T02:34:20.833Z,2.40
2022-07-29T02:35:24.579Z,1.40
2022-07-29T02:36:27.214Z,1.23
2022-07-29T02:37:30.077Z,1.70
2022-07-29T02:38:50.947Z,1.55
2022-07-29T02:39:54.415Z,2.05
2022-07-29T02:40:56.953Z,1.58
2022-07-29T02:42:04.261Z,1.13
2022-07-29T02:43:07.847Z,1.60
2022-07-29T02:44:14.233Z,1.20
2022-07-29T02:45:16.434Z,1.63
2022-07-29T02:46:28.494Z,1.30
2022-07-29T02:47:41.448Z,1.60
2022-07-29T02:48:50.957Z,1.77
2022-07-29T02:49:55.939Z,1.15
2022-07-29T02:51:03.898Z,1.60
2022-07-29T02:52:08.711Z,1.38
2022-07-29T02:53:15.315Z,1.40
2022-07-29T02:54:23.271Z,1.92
2022-07-29T02:55:28.674Z,1.77
2022-07-29T02:56:35.843Z,1.48
2022-07-29T02:57:54.807Z,1.35
2022-07-29T02:58:59.711Z,1.73
2022-07-29T03:00:07.163Z,1.42
2022-07-29T03:01:15.685Z,1.23
2022-07-29T03:02:22.834Z,1.45
2022-07-29T03:03:26.593Z,1.42
2022-07-29T03:04:30.237Z,1.60
2022-07-29T03:05:32.192Z,1.60
2022-07-29T03:06:38.818Z,1.40
2022-07-29T03:07:43.283Z,1.90
2022-07-29T03:08:45.522Z,1.88
2022-07-29T03:09:48.487Z,1.48
2022-07-29T03:10:50.354Z,1.48
2022-07-29T03:11:55.118Z,1.70
2022-07-29T03:12:57.653Z,1.60
2022-07-29T03:14:02.073Z,2.03
2022-07-29T03:15:04.409Z,1.75
2022-07-29T03:16:07.369Z,1.40
2022-07-29T03:17:10.774Z,1.30
2022-07-29T03:18:15.531Z,1.20
2022-07-29T03:19:17.452Z,1.48
2022-07-29T03:20:20.389Z,1.55
2022-07-29T03:21:22.038Z,1.50
2022-07-29T03:22:25.026Z,1.30
2022-07-29T03:23:28.753Z,1.30
2022-07-29T03:24:38.734Z,1.55
2022-07-29T03:25:40.402Z,1.63
2022-07-29T03:26:42.978Z,1.58
2022-07-29T03:27:45.378Z,1.95
2022-07-29T03:28:48.019Z,1.50
2022-07-29T03:29:50.621Z,1.75
2022-07-29T03:30:53.449Z,1.40
2022-07-29T03:31:57.075Z,1.40
2022-07-29T03:32:59.696Z,1.60
2022-07-29T03:34:02.678Z,1.55
2022-07-29T03:35:07.297Z,1.30
2022-07-29T03:36:11.021Z,1.48
2022-07-29T03:37:13.807Z,1.50
2022-07-29T03:38:15.618Z,1.33
2022-07-29T03:39:22.412Z,1.48
2022-07-29T03:40:28.647Z,1.60
2022-07-29T03:41:31.530Z,1.10
2022-07-29T03:42:35.502Z,1.60
2022-07-29T03:43:38.957Z,1.67
2022-07-29T03:44:52.518Z,1.30
2022-07-29T03:45:55.222Z,1.45
2022-07-29T03:47:00.000Z,1.88
2022-07-29T03:48:05.205Z,1.48
2022-07-29T03:49:10.261Z,1.35
2022-07-29T03:50:14.153Z,1.70
2022-07-29T03:51:16.767Z,1.85
2022-07-29T03:52:18.536Z,1.45
2022-07-29T03:53:21.138Z,1.70
2022-07-29T03:54:23.256Z,1.42
2022-07-29T03:55:26.211Z,1.65
2022-07-29T03:56:28.525Z,1.33
2022-07-29T03:57:32.628Z,1.70
2022-07-29T03:58:34.492Z,1.75
2022-07-29T03:59:37.324Z,1.58
2022-07-29T04:00:39.135Z,1.60
2022-07-29T04:01:42.341Z,1.55
2022-07-29T04:02:47.856Z,1.58
2022-07-29T04:03:50.676Z,1.58
2022-07-29T04:04:53.883Z,1.60
2022-07-29T04:06:01.483Z,1.63
2022-07-29T04:07:03.852Z,1.40
2022-07-29T04:08:06.991Z,1.30
2022-07-29T04:09:09.787Z,1.52
2022-07-29T04:10:13.192Z,1.80
2022-07-29T04:11:14.823Z,1.42
2022-07-29T04:12:17.452Z,1.10
2022-07-29T04:13:19.385Z,1.95
2022-07-29T04:14:22.312Z,1.35
2022-07-29T04:15:23.950Z,1.52
2022-07-29T04:16:26.636Z,1.52
2022-07-29T04:17:28.435Z,1.70
2022-07-29T04:18:30.995Z,2.28
2022-07-29T04:19:33.222Z,1.50
2022-07-29T04:20:37.116Z,1.42
2022-07-29T04:21:39.243Z,1.85
2022-07-29T04:22:41.945Z,1.42
2022-07-29T04:23:52.990Z,1.77
2022-07-29T04:25:00.337Z,1.42
2022-07-29T04:26:06.323Z,1.20
2022-07-29T04:27:07.887Z,1.33
2022-07-29T04:28:11.642Z,1.92
2022-07-29T04:29:15.061Z,1.83
2022-07-29T04:30:17.602Z,1.23
2022-07-29T04:31:22.460Z,1.60
2022-07-29T04:32:28.263Z,1.40
2022-07-29T04:33:29.893Z,1.88
2022-07-29T04:34:32.479Z,1.73
2022-07-29T04:35:38.544Z,1.58
2022-07-29T04:36:48.611Z,1.35
2022-07-29T04:37:50.233Z,1.25
2022-07-29T04:38:52.811Z,1.58
2022-07-29T04:39:54.367Z,1.50
2022-07-29T04:40:57.036Z,1.30
2022-07-29T04:41:59.075Z,1.63
2022-07-29T04:43:03.308Z,1.52
2022-07-29T04:44:07.751Z,1.52
2022-07-29T04:45:11.997Z,1.58
2022-07-29T04:46:13.829Z,1.35
2022-07-29T04:47:16.423Z,1.40
2022-07-29T04:48:17.973Z,1.48
2022-07-29T04:49:20.593Z,1.50
2022-07-29T04:50:22.360Z,1.55
2022-07-29T04:51:26.257Z,1.15
2022-07-29T04:52:27.840Z,1.58
2022-07-29T04:53:30.447Z,1.08
2022-07-29T04:54:32.035Z,1.55
2022-07-29T04:55:34.575Z,1.70
2022-07-29T04:56:40.463Z,1.55
2022-07-29T04:57:43.023Z,1.30
2022-07-29T04:58:44.662Z,1.20
2022-07-29T04:59:47.262Z,1.58
2022-07-29T05:00:49.848Z,1.90
2022-07-29T05:01:51.589Z,2.03
2022-07-29T05:02:54.202Z,1.55
2022-07-29T05:04:00.284Z,1.65
2022-07-29T05:05:03.317Z,1.50
2022-07-29T05:06:04.915Z,1.50
2022-07-29T05:07:08.848Z,1.70
2022-07-29T05:08:11.073Z,1.50
2022-07-29T05:09:13.697Z,1.60
2022-07-29T05:10:15.276Z,1.73
2022-07-29T05:11:21.306Z,1.60
2022-07-29T05:12:24.235Z,1.67
2022-07-29T05:13:26.753Z,1.45
2022-07-29T05:14:46.581Z,1.50
2022-07-29T05:15:49.338Z,1.40
2022-07-29T05:16:52.056Z,1.58
2022-07-29T05:17:54.640Z,1.10
2022-07-29T05:18:56.292Z,1.77
2022-07-29T05:19:58.878Z,1.58
2022-07-29T05:21:00.527Z,1.55
2022-07-29T05:22:03.149Z,1.60
2022-07-29T05:23:07.051Z,1.40
2022-07-29T05:24:08.959Z,1.20
2022-07-29T05:25:11.710Z,1.50
2022-07-29T05:26:13.337Z,1.52
2022-07-29T05:27:15.938Z,1.67
2022-07-29T05:28:17.552Z,1.80
2022-07-29T05:29:44.917Z,1.50
2022-07-29T05:30:42.933Z,1.55
2022-07-29T05:31:44.601Z,1.13
2022-07-29T05:32:48.094Z,1.73
2022-07-29T05:33:49.709Z,1.40
2022-07-29T05:34:52.398Z,1.30
2022-07-29T05:35:58.503Z,1.25
2022-07-29T05:37:03.406Z,1.33
2022-07-29T05:38:07.371Z,1.50
2022-07-29T05:39:09.289Z,2.78
2022-07-29T05:40:12.627Z,2.75
2022-07-29T05:41:14.321Z,1.48
2022-07-29T05:42:16.991Z,1.30
2022-07-29T05:43:18.589Z,1.63
2022-07-29T05:44:21.193Z,1.48
2022-07-29T05:45:28.377Z,1.77
2022-07-29T05:46:30.623Z,2.08
2022-07-29T05:47:33.313Z,1.88
2022-07-29T05:48:34.952Z,1.50
2022-07-29T05:49:37.670Z,1.58
2022-07-29T05:50:44.325Z,1.58
2022-07-29T05:51:47.285Z,1.70
2022-07-29T05:52:49.208Z,1.50
2022-07-29T05:53:53.795Z,1.67
2022-07-29T05:54:56.490Z,1.88
2022-07-29T05:55:58.098Z,1.90
2022-07-29T05:57:00.664Z,1.65
2022-07-29T05:58:02.281Z,2.22
2022-07-29T05:59:05.045Z,1.25
2022-07-29T06:00:20.928Z,1.55
2022-07-29T06:01:22.625Z,2.00
2022-07-29T06:02:25.290Z,1.63
2022-07-29T06:03:27.197Z,1.73
2022-07-29T06:04:29.866Z,1.40
2022-07-29T06:05:31.695Z,1.50
2022-07-29T06:06:34.522Z,1.42
2022-07-29T06:07:36.196Z,1.50
2022-07-29T06:08:39.421Z,2.03
2022-07-29T06:09:42.435Z,2.17
2022-07-29T06:10:45.171Z,1.40
2022-07-29T06:11:46.798Z,1.40
2022-07-29T06:12:49.386Z,2.53
2022-07-29T06:13:51.040Z,1.52
2022-07-29T06:14:54.338Z,1.58
2022-07-29T06:15:56.139Z,1.80
2022-07-29T06:16:58.681Z,1.75
2022-07-29T06:18:01.957Z,1.45
2022-07-29T06:19:05.287Z,1.65
2022-07-29T06:20:07.675Z,1.60
2022-07-29T06:21:11.597Z,1.63
2022-07-29T06:22:13.133Z,1.50
2022-07-29T06:23:15.634Z,1.80
2022-07-29T06:24:17.692Z,2.30
2022-07-29T06:25:22.010Z,1.70
2022-07-29T06:26:26.369Z,1.70
2022-07-29T06:27:33.465Z,1.83
2022-07-29T06:28:37.319Z,1.65
2022-07-29T06:29:40.263Z,1.63
2022-07-29T06:30:41.958Z,1.65
2022-07-29T06:31:44.540Z,1.60
2022-07-29T06:32:47.057Z,1.60
2022-07-29T06:33:48.650Z,1.60
2022-07-29T06:34:51.529Z,1.60
2022-07-29T06:35:55.174Z,1.55
2022-07-29T06:36:57.946Z,1.55
2022-07-29T06:38:01.257Z,1.88
2022-07-29T06:39:06.222Z,1.50
2022-07-29T06:40:23.643Z,1.58
2022-07-29T06:41:27.589Z,1.38
2022-07-29T06:42:29.159Z,1.70
2022-07-29T06:43:34.881Z,1.70
2022-07-29T06:44:37.631Z,1.27
2022-07-29T06:45:42.168Z,1.77
2022-07-29T06:46:44.995Z,1.58
2022-07-29T06:47:46.578Z,1.52
2022-07-29T06:48:49.601Z,1.90
2022-07-29T06:49:51.347Z,1.50
2022-07-29T06:50:53.886Z,2.08
2022-07-29T06:51:57.514Z,1.73
2022-07-29T06:52:59.131Z,1.45
2022-07-29T06:54:02.678Z,1.55
2022-07-29T06:55:05.890Z,1.67
2022-07-29T06:56:09.719Z,1.90
2022-07-29T06:57:13.906Z,1.75
2022-07-29T06:58:18.792Z,1.60
2022-07-29T06:59:28.328Z,1.80
2022-07-29T07:00:33.745Z,2.00
2022-07-29T07:01:37.414Z,2.35
2022-07-29T07:02:39.134Z,1.70
2022-07-29T07:03:42.791Z,2.03
2022-07-29T07:04:44.422Z,1.48
2022-07-29T07:05:47.402Z,1.30
2022-07-29T07:06:49.987Z,1.60
2022-07-29T07:07:51.579Z,1.60
2022-07-29T07:08:55.289Z,1.80
2022-07-29T07:09:56.926Z,1.33
2022-07-29T07:10:59.504Z,1.73
2022-07-29T07:12:02.031Z,1.63
2022-07-29T07:13:05.366Z,2.03
2022-07-29T07:14:08.440Z,2.10
2022-07-29T07:15:10.938Z,1.70
2022-07-29T07:16:14.524Z,1.80
2022-07-29T07:17:16.151Z,1.75
2022-07-29T07:18:18.781Z,1.52
2022-07-29T07:19:20.368Z,1.60
2022-07-29T07:20:22.969Z,1.85
2022-07-29T07:21:30.503Z,1.90
2022-07-29T07:22:36.981Z,1.80
2022-07-29T07:23:41.457Z,2.17
2022-07-29T07:24:43.134Z,1.75
2022-07-29T07:25:46.098Z,1.73
2022-07-29T07:26:47.713Z,2.10
2022-07-29T07:27:50.646Z,1.98
2022-07-29T07:28:55.059Z,2.50
2022-07-29T07:29:56.609Z,1.85
2022-07-29T07:30:59.237Z,1.90
2022-07-29T07:32:01.450Z,1.85
2022-07-29T07:33:04.484Z,1.65
2022-07-29T07:34:06.106Z,2.00
2022-07-29T07:35:10.538Z,1.70
2022-07-29T07:36:13.408Z,1.55
2022-07-29T07:37:15.517Z,1.55
2022-07-29T07:38:18.156Z,1.52
2022-07-29T07:39:20.037Z,1.60
2022-07-29T07:40:22.681Z,1.67
2022-07-29T07:41:25.336Z,1.40
2022-07-29T07:42:26.895Z,1.80
2022-07-29T07:43:29.611Z,1.70
2022-07-29T07:44:32.577Z,1.85
2022-07-29T07:45:35.270Z,2.05
2022-07-29T07:46:36.906Z,1.45
2022-07-29T07:47:41.492Z,2.38
2022-07-29T07:48:43.080Z,1.55
2022-07-29T07:49:45.895Z,1.95
2022-07-29T07:50:50.232Z,2.75
2022-07-29T07:51:53.456Z,2.47
2022-07-29T07:52:58.487Z,2.03
2022-07-29T07:54:01.981Z,1.60
2022-07-29T07:55:04.981Z,1.70
2022-07-29T07:56:10.898Z,1.80
2022-07-29T07:57:14.014Z,1.80
2022-07-29T07:58:16.554Z,1.50
2022-07-29T07:59:18.152Z,1.95
2022-07-29T08:00:23.012Z,1.67
2022-07-29T08:01:25.489Z,1.60
2022-07-29T08:02:28.231Z,1.75
2022-07-29T08:03:30.849Z,2.15
2022-07-29T08:04:32.510Z,1.88
2022-07-29T08:05:35.107Z,1.70
2022-07-29T08:06:41.966Z,2.15
2022-07-29T08:07:45.354Z,1.60
2022-07-29T08:08:47.911Z,1.75
2022-07-29T08:09:49.493Z,2.38
2022-07-29T08:10:56.263Z,1.77
2022-07-29T08:11:58.656Z,2.40
2022-07-29T08:13:03.909Z,2.20
2022-07-29T08:14:05.533Z,2.03
2022-07-29T08:15:09.575Z,2.03
2022-07-29T08:16:13.376Z,2.58
2022-07-29T08:17:16.089Z,1.90
2022-07-29T08:18:17.686Z,1.90
2022-07-29T08:19:20.387Z,1.70
2022-07-29T08:20:21.975Z,2.03
2022-07-29T08:21:25.802Z,1.60
2022-07-29T08:22:28.364Z,1.80
2022-07-29T08:23:47.834Z,1.95
2022-07-29T08:24:56.942Z,2.13
2022-07-29T08:25:58.576Z,1.92
2022-07-29T08:27:01.165Z,1.70
2022-07-29T08:28:02.867Z,2.20
2022-07-29T08:29:05.448Z,2.03
2022-07-29T08:30:08.271Z,1.75
2022-07-29T08:31:11.017Z,2.00
2022-07-29T08:32:26.182Z,1.90
2022-07-29T08:33:36.778Z,2.17
2022-07-29T08:34:38.445Z,1.90
2022-07-29T08:35:41.485Z,1.75
2022-07-29T08:36:43.098Z,2.10
2022-07-29T08:37:45.722Z,1.95
2022-07-29T08:38:47.346Z,1.90
2022-07-29T08:39:49.973Z,2.17
2022-07-29T08:40:51.594Z,2.20
2022-07-29T08:41:56.961Z,2.00
2022-07-29T08:42:59.522Z,1.88
2022-07-29T08:44:02.114Z,1.80
2022-07-29T08:45:05.046Z,1.90
2022-07-29T08:46:06.803Z,1.60
2022-07-29T08:47:09.863Z,1.77
2022-07-29T08:48:14.217Z,2.03
2022-07-29T08:49:17.141Z,2.38
2022-07-29T08:50:18.794Z,2.28
2022-07-29T08:51:22.372Z,2.00
2022-07-29T08:52:26.576Z,2.10
2022-07-29T08:53:30.310Z,1.90
2022-07-29T08:54:33.081Z,1.80
2022-07-29T08:55:34.960Z,2.00
2022-07-29T08:56:37.865Z,1.88
2022-07-29T08:57:51.115Z,2.00
2022-07-29T08:58:58.496Z,2.20
2022-07-29T09:00:06.426Z,2.08
2022-07-29T09:01:12.336Z,2.08
2022-07-29T09:02:20.938Z,1.73
2022-07-29T09:03:26.362Z,1.95
2022-07-29T09:04:32.915Z,1.70
2022-07-29T09:05:40.150Z,1.88
2022-07-29T09:06:48.576Z,1.88
2022-07-29T09:07:51.014Z,1.83
2022-07-29T09:08:53.736Z,1.73
2022-07-29T09:09:57.227Z,2.10
2022-07-29T09:10:59.400Z,2.13
2022-07-29T09:12:04.889Z,1.77
2022-07-29T09:13:06.473Z,1.77
2022-07-29T09:14:09.431Z,1.95
2022-07-29T09:15:12.099Z,2.00
2022-07-29T09:16:26.722Z,1.92
2022-07-29T09:17:43.750Z,1.92
2022-07-29T09:18:47.354Z,2.08
2022-07-29T09:19:50.037Z,2.00
2022-07-29T09:21:22.879Z,2.08
2022-07-29T09:22:31.149Z,1.75
2022-07-29T09:23:32.754Z,1.50
2022-07-29T09:24:40.658Z,1.75
2022-07-29T09:25:42.529Z,2.15
2022-07-29T09:26:46.363Z,2.40
2022-07-29T09:27:52.111Z,2.25
2022-07-29T09:28:53.745Z,1.80
2022-07-29T09:30:00.789Z,1.80
2022-07-29T09:31:03.377Z,1.80
2022-07-29T09:32:09.239Z,1.98
2022-07-29T09:33:11.767Z,1.77
2022-07-29T09:34:16.901Z,1.90
2022-07-29T09:35:20.560Z,1.92
2022-07-29T09:36:23.209Z,1.73
2022-07-29T09:37:28.375Z,1.70
2022-07-29T09:38:31.023Z,1.48
2022-07-29T09:39:34.293Z,2.00
2022-07-29T09:40:36.853Z,1.88
2022-07-29T09:41:49.406Z,2.10
2022-07-29T09:42:53.779Z,1.90
2022-07-29T09:43:56.665Z,1.67
2022-07-29T09:44:59.271Z,1.83
2022-07-29T09:46:12.816Z,1.60
2022-07-29T09:47:15.827Z,2.25
2022-07-29T09:48:19.016Z,2.00
2022-07-29T09:49:22.999Z,2.08
2022-07-29T09:50:36.942Z,2.05
2022-07-29T09:51:38.981Z,2.03
2022-07-29T09:52:49.446Z,2.40
2022-07-29T09:53:51.452Z,2.20
2022-07-29T09:55:06.548Z,1.98
2022-07-29T09:56:08.130Z,2.05
2022-07-29T09:57:13.489Z,1.83
2022-07-29T09:58:19.011Z,1.80
2022-07-29T09:59:25.224Z,1.77
2022-07-29T10:00:27.755Z,1.75
2022-07-29T10:01:29.650Z,1.73
2022-07-29T10:02:33.351Z,1.77
2022-07-29T10:03:52.719Z,1.98
2022-07-29T10:04:56.317Z,2.03
2022-07-29T10:06:09.412Z,1.67
2022-07-29T10:07:11.180Z,1.83
2022-07-29T10:08:14.433Z,1.98
2022-07-29T10:09:16.998Z,1.98
2022-07-29T10:10:26.223Z,1.88
2022-07-29T10:11:27.804Z,2.00
2022-07-29T10:12:52.398Z,2.17
2022-07-29T10:13:55.030Z,1.73
2022-07-29T10:14:57.760Z,2.15
2022-07-29T10:15:59.373Z,2.03
2022-07-29T10:17:02.884Z,2.20
2022-07-29T10:18:05.703Z,2.28
2022-07-29T10:19:07.297Z,2.22
2022-07-29T10:20:16.272Z,1.95
2022-07-29T10:21:35.298Z,2.28
2022-07-29T10:22:54.469Z,1.60
2022-07-29T10:23:56.685Z,1.70
2022-07-29T10:25:03.703Z,2.05
2022-07-29T10:26:05.491Z,2.08
2022-07-29T10:27:09.154Z,2.17
2022-07-29T10:28:15.771Z,2.38
2022-07-29T10:29:18.939Z,2.05
2022-07-29T10:30:25.569Z,2.25
2022-07-29T10:31:30.770Z,2.00
2022-07-29T10:32:42.743Z,2.42
2022-07-29T10:33:51.246Z,1.95
2022-07-29T10:35:04.135Z,1.90
2022-07-29T10:36:18.763Z,2.65
2022-07-29T10:37:35.500Z,2.05
2022-07-29T10:38:48.634Z,2.03
2022-07-29T10:39:57.006Z,2.53
2022-07-29T10:41:23.261Z,2.50
2022-07-29T10:42:29.669Z,2.47
2022-07-29T10:43:38.957Z,2.38
2022-07-29T10:44:45.473Z,2.28
2022-07-29T10:45:48.293Z,2.25
2022-07-29T10:46:54.512Z,2.53
2022-07-29T10:48:05.408Z,2.22
2022-07-29T10:49:15.230Z,2.45
2022-07-29T10:50:17.524Z,2.50
2022-07-29T10:51:21.495Z,2.78
2022-07-29T10:52:26.576Z,3.00
2022-07-29T10:53:48.166Z,2.40
2022-07-29T10:54:52.483Z,2.88
2022-07-29T10:55:54.140Z,2.42
2022-07-29T10:56:56.734Z,2.70
2022-07-29T10:58:13.674Z,2.50
2022-07-29T10:59:25.689Z,2.42
2022-07-29T11:00:33.006Z,2.47
2022-07-29T11:01:37.373Z,2.88
2022-07-29T11:02:50.233Z,2.70
2022-07-29T11:03:57.192Z,2.67
2022-07-29T11:05:02.372Z,2.65
2022-07-29T11:06:08.826Z,2.83
2022-07-29T11:07:13.615Z,2.53
2022-07-29T11:08:28.016Z,3.00
2022-07-29T11:09:37.460Z,2.67
2022-07-29T11:10:41.278Z,2.78
2022-07-29T11:11:51.525Z,2.13
2022-07-29T11:12:53.621Z,2.25
2022-07-29T11:13:56.966Z,2.70
2022-07-29T11:15:01.420Z,2.00
2022-07-29T11:16:04.019Z,2.78
2022-07-29T11:17:08.746Z,2.55
2022-07-29T11:18:15.027Z,2.35
2022-07-29T11:19:30.017Z,2.30
2022-07-29T11:20:33.583Z,2.63
2022-07-29T11:21:54.820Z,2.70
2022-07-29T11:23:19.738Z,2.85
2022-07-29T11:24:29.239Z,2.80
2022-07-29T11:25:50.283Z,2.58
2022-07-29T11:27:11.065Z,2.20
2022-07-29T11:28:22.993Z,3.00
2022-07-29T11:29:27.964Z,2.58
2022-07-29T11:30:49.850Z,2.60
2022-07-29T11:31:55.733Z,2.10
2022-07-29T11:32:59.187Z,2.30
2022-07-29T11:34:20.848Z,2.35
2022-07-29T11:35:37.383Z,2.38
2022-07-29T11:37:23.247Z,2.47
2022-07-29T11:38:32.461Z,2.42
2022-07-29T11:39:37.213Z,2.53
2022-07-29T11:41:23.572Z,2.60
2022-07-29T11:42:44.592Z,2.25
2022-07-29T11:43:52.082Z,2.65
2022-07-29T11:44:58.102Z,2.25
2022-07-29T11:46:01.193Z,2.72
2022-07-29T11:47:03.026Z,2.47
2022-07-29T11:48:29.303Z,2.60
2022-07-29T11:49:32.476Z,2.50
2022-07-29T11:50:37.482Z,2.50
2022-07-29T11:51:52.663Z,2.67
2022-07-29T11:52:55.744Z,2.70
2022-07-29T11:54:05.334Z,2.67
2022-07-29T11:55:09.584Z,2.70
2022-07-29T11:56:16.449Z,3.00
2022-07-29T11:57:19.997Z,2.72
2022-07-29T11:58:24.865Z,2.83
2022-07-29T11:59:32.915Z,2.90
2022-07-29T12:00:39.991Z,2.50
2022-07-29T12:02:06.657Z,2.70
2022-07-29T12:03:34.797Z,2.72
2022-07-29T12:04:49.373Z,2.58
2022-07-29T12:05:52.811Z,2.97
2022-07-29T12:06:55.396Z,3.42
2022-07-29T12:08:06.158Z,4.22
2022-07-29T12:09:16.466Z,2.78
2022-07-29T12:10:19.983Z,2.67
2022-07-29T12:11:33.020Z,3.38
2022-07-29T12:12:35.154Z,3.00
2022-07-29T12:13:41.633Z,2.95
2022-07-29T12:14:46.518Z,2.53
2022-07-29T12:15:55.704Z,2.80
2022-07-29T12:17:01.816Z,2.72
2022-07-29T12:18:18.371Z,3.05
2022-07-29T12:19:20.190Z,3.13
2022-07-29T12:20:28.367Z,2.92
2022-07-29T12:21:59.544Z,3.05
2022-07-29T12:23:07.776Z,2.65
2022-07-29T12:24:09.724Z,2.67
2022-07-29T12:25:32.653Z,2.78
2022-07-29T12:26:35.998Z,2.75
2022-07-29T12:27:40.271Z,3.10
2022-07-29T12:28:43.297Z,3.00
2022-07-29T12:29:57.436Z,3.47
2022-07-29T12:31:01.298Z,3.40
2022-07-29T12:32:06.982Z,3.05
2022-07-29T12:33:23.567Z,3.25
2022-07-29T12:34:27.995Z,2.78
2022-07-29T12:35:30.599Z,2.80
2022-07-29T12:36:32.267Z,3.13
2022-07-29T12:37:41.247Z,2.88
2022-07-29T12:38:45.194Z,2.85
2022-07-29T12:39:46.852Z,2.80
2022-07-29T12:40:51.897Z,2.83
2022-07-29T12:41:54.265Z,3.15
2022-07-29T12:43:10.227Z,2.53
2022-07-29T12:44:14.382Z,3.28
2022-07-29T12:45:17.459Z,3.05
2022-07-29T12:46:20.058Z,3.05
2022-07-29T12:47:21.798Z,3.30
2022-07-29T12:48:35.710Z,3.17
2022-07-29T12:49:38.040Z,3.03
2022-07-29T12:50:58.102Z,2.90
2022-07-29T12:52:00.032Z,3.00
2022-07-29T12:53:11.316Z,3.10
2022-07-29T12:54:15.358Z,3.10
2022-07-29T12:55:16.987Z,3.08
2022-07-29T12:56:41.805Z,3.00
2022-07-29T12:57:48.109Z,3.28
2022-07-29T12:58:51.421Z,2.92
2022-07-29T13:00:08.834Z,3.38
2022-07-29T13:01:17.275Z,3.17
2022-07-29T13:02:22.594Z,4.00
2022-07-29T13:03:25.230Z,3.05
2022-07-29T13:04:28.295Z,3.30
2022-07-29T13:05:49.339Z,3.28
2022-07-29T13:06:59.362Z,2.53
2022-07-29T13:08:22.124Z,3.08
2022-07-29T13:09:25.326Z,3.00
2022-07-29T13:10:27.035Z,3.40
2022-07-29T13:11:32.341Z,3.65
2022-07-29T13:12:36.922Z,3.30
2022-07-29T13:13:52.125Z,3.10
2022-07-29T13:15:18.328Z,3.25
2022-07-29T13:16:20.053Z,2.85
2022-07-29T13:17:24.173Z,3.08
2022-07-29T13:18:30.189Z,3.20
2022-07-29T13:19:41.223Z,3.50
2022-07-29T13:20:42.879Z,3.40
2022-07-29T13:21:47.313Z,4.45
2022-07-29T13:22:49.029Z,2.95
2022-07-29T13:23:51.830Z,3.20
2022-07-29T13:24:55.515Z,3.65
2022-07-29T13:26:06.285Z,3.03
2022-07-29T13:27:10.607Z,3.35
2022-07-29T13:28:12.658Z,3.10
2022-07-29T13:29:15.681Z,2.95
2022-07-29T13:30:17.357Z,3.20
2022-07-29T13:31:20.006Z,3.17
2022-07-29T13:32:28.349Z,3.20
2022-07-29T13:33:31.106Z,3.28
2022-07-29T13:34:33.713Z,3.20
2022-07-29T13:35:35.325Z,2.50
2022-07-29T13:36:42.772Z,3.13
2022-07-29T13:37:44.429Z,3.13
2022-07-29T13:38:47.086Z,2.90
2022-07-29T13:39:52.870Z,2.88
2022-07-29T13:40:54.919Z,2.80
2022-07-29T13:41:57.887Z,2.78
2022-07-29T13:43:03.773Z,2.40
2022-07-29T13:44:05.729Z,2.53
2022-07-29T13:45:10.608Z,2.85
2022-07-29T13:46:12.432Z,3.33
2022-07-29T13:47:15.141Z,2.70
2022-07-29T13:48:17.741Z,2.45
2022-07-29T13:49:19.438Z,3.15
2022-07-29T13:50:22.257Z,2.88
2022-07-29T13:51:23.873Z,2.63
2022-07-29T13:52:26.521Z,2.65
2022-07-29T13:53:29.577Z,2.67
2022-07-29T13:54:32.374Z,2.67
2022-07-29T13:55:34.065Z,3.08
2022-07-29T13:56:36.837Z,2.78
2022-07-29T13:57:38.477Z,2.55
2022-07-29T13:58:42.380Z,2.80
2022-07-29T13:59:44.500Z,2.75
2022-07-29T14:00:47.554Z,2.72
2022-07-29T14:01:50.146Z,2.92
2022-07-29T14:02:53.112Z,2.97
2022-07-29T14:03:54.793Z,2.92
2022-07-29T14:04:58.739Z,2.42
2022-07-29T14:06:01.416Z,2.85
2022-07-29T14:07:04.859Z,2.65
2022-07-29T14:08:06.474Z,2.78
2022-07-29T14:09:09.641Z,3.15
2022-07-29T14:10:11.736Z,2.60
2022-07-29T14:11:14.326Z,2.70
2022-07-29T14:12:16.018Z,2.70
2022-07-29T14:13:24.542Z,2.92
2022-07-29T14:14:28.597Z,2.50
2022-07-29T14:15:31.236Z,2.90
2022-07-29T14:16:32.909Z,2.78
2022-07-29T14:17:35.562Z,2.40
2022-07-29T14:18:37.132Z,2.95
2022-07-29T14:19:39.858Z,2.20
2022-07-29T14:20:42.410Z,2.63
2022-07-29T14:21:44.401Z,2.58
2022-07-29T14:22:48.295Z,2.58
2022-07-29T14:23:49.958Z,2.28
2022-07-29T14:24:53.105Z,2.50
2022-07-29T14:25:55.671Z,2.92
2022-07-29T14:26:57.899Z,2.40
2022-07-29T14:28:00.477Z,2.67